sensor_id;sensor_type;location;lat;lon;timestamp;P1;durP1;ratioP1;P2;durP2;ratioP2
12774;SDS011;6451;42.630;23.382;2022-08-19T00:01:49;5.80;;;5.22;;
12774;SDS011;6451;42.630;23.382;2022-08-19T00:04:17;6.15;;;5.55;;
12774;SDS011;6451;42.630;23.382;2022-08-19T00:06:45;5.72;;;5.20;;
12774;SDS011;6451;42.630;23.382;2022-08-19T00:09:14;5.80;;;5.30;;
12774;SDS011;6451;42.630;23.382;2022-08-19T00:11:43;5.50;;;5.00;;
12774;SDS011;6451;42.630;23.382;2022-08-19T00:14:12;4.90;;;4.57;;
12774;SDS011;6451;42.630;23.382;2022-08-19T00:16:42;5.90;;;5.40;;
12774;SDS011;6451;42.630;23.382;2022-08-19T00:19:12;6.00;;;5.50;;
12774;SDS011;6451;42.630;23.382;2022-08-19T00:21:39;7.32;;;5.72;;
12774;SDS011;6451;42.630;23.382;2022-08-19T00:24:06;6.28;;;5.35;;
12774;SDS011;6451;42.630;23.382;2022-08-19T00:26:34;5.80;;;5.30;;
12774;SDS011;6451;42.630;23.382;2022-08-19T00:29:02;6.40;;;5.38;;
12774;SDS011;6451;42.630;23.382;2022-08-19T00:31:30;6.10;;;5.50;;
12774;SDS011;6451;42.630;23.382;2022-08-19T00:33:57;6.57;;;5.18;;
12774;SDS011;6451;42.630;23.382;2022-08-19T00:36:25;8.35;;;5.45;;
12774;SDS011;6451;42.630;23.382;2022-08-19T00:38:53;6.10;;;5.55;;
12774;SDS011;6451;42.630;23.382;2022-08-19T00:41:21;8.27;;;5.72;;
12774;SDS011;6451;42.630;23.382;2022-08-19T00:43:56;6.88;;;6.28;;
12774;SDS011;6451;42.630;23.382;2022-08-19T00:46:33;7.50;;;5.50;;
12774;SDS011;6451;42.630;23.382;2022-08-19T00:49:03;6.40;;;5.80;;
12774;SDS011;6451;42.630;23.382;2022-08-19T00:51:37;5.78;;;5.10;;
12774;SDS011;6451;42.630;23.382;2022-08-19T00:54:04;5.88;;;5.28;;
12774;SDS011;6451;42.630;23.382;2022-08-19T00:56:31;6.05;;;5.50;;
12774;SDS011;6451;42.630;23.382;2022-08-19T00:58:58;5.88;;;5.38;;
12774;SDS011;6451;42.630;23.382;2022-08-19T01:01:26;6.20;;;5.70;;
12774;SDS011;6451;42.630;23.382;2022-08-19T01:03:54;6.15;;;5.55;;
12774;SDS011;6451;42.630;23.382;2022-08-19T01:06:21;6.18;;;5.57;;
12774;SDS011;6451;42.630;23.382;2022-08-19T01:08:49;6.15;;;5.55;;
12774;SDS011;6451;42.630;23.382;2022-08-19T01:11:17;5.97;;;5.38;;
12774;SDS011;6451;42.630;23.382;2022-08-19T01:13:44;8.52;;;5.38;;
12774;SDS011;6451;42.630;23.382;2022-08-19T01:16:12;6.57;;;5.97;;
12774;SDS011;6451;42.630;23.382;2022-08-19T01:18:41;6.32;;;5.80;;
12774;SDS011;6451;42.630;23.382;2022-08-19T01:21:10;6.68;;;5.93;;
12774;SDS011;6451;42.630;23.382;2022-08-19T01:23:44;6.80;;;5.75;;
12774;SDS011;6451;42.630;23.382;2022-08-19T01:26:13;9.07;;;6.10;;
12774;SDS011;6451;42.630;23.382;2022-08-19T01:28:43;6.07;;;5.68;;
12774;SDS011;6451;42.630;23.382;2022-08-19T01:31:14;6.50;;;5.90;;
12774;SDS011;6451;42.630;23.382;2022-08-19T01:33:43;6.30;;;5.70;;
12774;SDS011;6451;42.630;23.382;2022-08-19T01:36:12;6.85;;;6.15;;
12774;SDS011;6451;42.630;23.382;2022-08-19T01:38:42;6.68;;;5.97;;
12774;SDS011;6451;42.630;23.382;2022-08-19T01:41:11;7.40;;;6.15;;
12774;SDS011;6451;42.630;23.382;2022-08-19T01:43:39;6.88;;;6.28;;
12774;SDS011;6451;42.630;23.382;2022-08-19T01:46:07;6.78;;;6.10;;
12774;SDS011;6451;42.630;23.382;2022-08-19T01:48:34;7.20;;;6.60;;
12774;SDS011;6451;42.630;23.382;2022-08-19T01:51:03;6.93;;;6.22;;
12774;SDS011;6451;42.630;23.382;2022-08-19T01:53:30;6.75;;;6.10;;
12774;SDS011;6451;42.630;23.382;2022-08-19T01:55:57;7.15;;;6.45;;
12774;SDS011;6451;42.630;23.382;2022-08-19T01:58:27;6.93;;;6.30;;
12774;SDS011;6451;42.630;23.382;2022-08-19T02:00:59;7.18;;;6.50;;
12774;SDS011;6451;42.630;23.382;2022-08-19T02:03:25;6.55;;;5.95;;
12774;SDS011;6451;42.630;23.382;2022-08-19T02:05:56;7.13;;;6.35;;
12774;SDS011;6451;42.630;23.382;2022-08-19T02:08:25;6.90;;;6.30;;
12774;SDS011;6451;42.630;23.382;2022-08-19T02:10:52;6.88;;;6.13;;
12774;SDS011;6451;42.630;23.382;2022-08-19T02:13:20;8.00;;;6.40;;
12774;SDS011;6451;42.630;23.382;2022-08-19T02:15:48;7.15;;;6.45;;
12774;SDS011;6451;42.630;23.382;2022-08-19T02:18:17;7.15;;;6.47;;
12774;SDS011;6451;42.630;23.382;2022-08-19T02:20:44;6.82;;;6.22;;
12774;SDS011;6451;42.630;23.382;2022-08-19T02:23:12;6.82;;;6.07;;
12774;SDS011;6451;42.630;23.382;2022-08-19T02:25:41;7.22;;;6.45;;
12774;SDS011;6451;42.630;23.382;2022-08-19T02:28:09;7.50;;;6.10;;
12774;SDS011;6451;42.630;23.382;2022-08-19T02:30:37;7.40;;;6.10;;
12774;SDS011;6451;42.630;23.382;2022-08-19T02:33:07;7.13;;;6.43;;
12774;SDS011;6451;42.630;23.382;2022-08-19T02:35:34;6.97;;;6.38;;
12774;SDS011;6451;42.630;23.382;2022-08-19T02:38:02;8.07;;;6.80;;
12774;SDS011;6451;42.630;23.382;2022-08-19T02:40:50;6.60;;;6.10;;
12774;SDS011;6451;42.630;23.382;2022-08-19T02:43:17;8.43;;;6.78;;
12774;SDS011;6451;42.630;23.382;2022-08-19T02:45:47;6.93;;;6.32;;
12774;SDS011;6451;42.630;23.382;2022-08-19T02:48:16;6.53;;;5.93;;
12774;SDS011;6451;42.630;23.382;2022-08-19T02:50:44;6.53;;;5.88;;
12774;SDS011;6451;42.630;23.382;2022-08-19T02:53:12;6.95;;;6.25;;
12774;SDS011;6451;42.630;23.382;2022-08-19T02:55:42;7.88;;;6.18;;
12774;SDS011;6451;42.630;23.382;2022-08-19T02:58:11;6.95;;;6.28;;
12774;SDS011;6451;42.630;23.382;2022-08-19T03:00:41;7.25;;;6.63;;
12774;SDS011;6451;42.630;23.382;2022-08-19T03:03:09;6.97;;;6.28;;
12774;SDS011;6451;42.630;23.382;2022-08-19T03:05:38;7.13;;;6.47;;
12774;SDS011;6451;42.630;23.382;2022-08-19T03:08:07;6.65;;;6.15;;
12774;SDS011;6451;42.630;23.382;2022-08-19T03:10:39;8.45;;;6.13;;
12774;SDS011;6451;42.630;23.382;2022-08-19T03:13:09;7.78;;;6.80;;
12774;SDS011;6451;42.630;23.382;2022-08-19T03:15:38;7.05;;;6.47;;
12774;SDS011;6451;42.630;23.382;2022-08-19T03:18:07;7.55;;;6.80;;
12774;SDS011;6451;42.630;23.382;2022-08-19T03:20:40;7.05;;;6.43;;
12774;SDS011;6451;42.630;23.382;2022-08-19T03:23:08;7.47;;;6.80;;
12774;SDS011;6451;42.630;23.382;2022-08-19T03:25:37;6.90;;;6.30;;
12774;SDS011;6451;42.630;23.382;2022-08-19T03:28:05;7.20;;;6.50;;
12774;SDS011;6451;42.630;23.382;2022-08-19T03:30:32;7.15;;;6.28;;
12774;SDS011;6451;42.630;23.382;2022-08-19T03:32:59;6.72;;;6.15;;
12774;SDS011;6451;42.630;23.382;2022-08-19T03:35:26;7.30;;;6.32;;
12774;SDS011;6451;42.630;23.382;2022-08-19T03:37:55;6.93;;;6.32;;
12774;SDS011;6451;42.630;23.382;2022-08-19T03:40:23;7.38;;;6.55;;
12774;SDS011;6451;42.630;23.382;2022-08-19T03:42:50;10.98;;;6.78;;
12774;SDS011;6451;42.630;23.382;2022-08-19T03:45:17;6.90;;;6.30;;
12774;SDS011;6451;42.630;23.382;2022-08-19T03:47:45;8.18;;;6.70;;
12774;SDS011;6451;42.630;23.382;2022-08-19T03:50:12;7.72;;;6.63;;
12774;SDS011;6451;42.630;23.382;2022-08-19T03:52:39;7.00;;;6.43;;
12774;SDS011;6451;42.630;23.382;2022-08-19T03:55:08;7.10;;;6.22;;
12774;SDS011;6451;42.630;23.382;2022-08-19T03:57:35;9.52;;;6.68;;
12774;SDS011;6451;42.630;23.382;2022-08-19T04:00:04;7.30;;;6.60;;
12774;SDS011;6451;42.630;23.382;2022-08-19T04:02:32;7.38;;;6.78;;
12774;SDS011;6451;42.630;23.382;2022-08-19T04:04:59;7.07;;;6.47;;
12774;SDS011;6451;42.630;23.382;2022-08-19T04:07:26;7.00;;;6.28;;
12774;SDS011;6451;42.630;23.382;2022-08-19T04:09:54;7.15;;;6.00;;
12774;SDS011;6451;42.630;23.382;2022-08-19T04:12:28;6.82;;;6.15;;
12774;SDS011;6451;42.630;23.382;2022-08-19T04:14:55;7.78;;;6.75;;
12774;SDS011;6451;42.630;23.382;2022-08-19T04:17:23;7.35;;;6.53;;
12774;SDS011;6451;42.630;23.382;2022-08-19T04:19:51;7.15;;;6.45;;
12774;SDS011;6451;42.630;23.382;2022-08-19T04:22:17;6.88;;;6.18;;
12774;SDS011;6451;42.630;23.382;2022-08-19T04:24:44;8.27;;;6.82;;
12774;SDS011;6451;42.630;23.382;2022-08-19T04:27:12;7.32;;;6.60;;
12774;SDS011;6451;42.630;23.382;2022-08-19T04:29:41;7.65;;;6.95;;
12774;SDS011;6451;42.630;23.382;2022-08-19T04:32:08;10.20;;;6.90;;
12774;SDS011;6451;42.630;23.382;2022-08-19T04:34:35;7.00;;;6.43;;
12774;SDS011;6451;42.630;23.382;2022-08-19T04:37:04;8.73;;;7.10;;
12774;SDS011;6451;42.630;23.382;2022-08-19T04:39:33;7.82;;;6.70;;
12774;SDS011;6451;42.630;23.382;2022-08-19T04:42:17;8.98;;;6.65;;
12774;SDS011;6451;42.630;23.382;2022-08-19T04:45:04;7.25;;;6.65;;
12774;SDS011;6451;42.630;23.382;2022-08-19T04:47:31;8.45;;;6.88;;
12774;SDS011;6451;42.630;23.382;2022-08-19T04:49:58;7.30;;;6.55;;
12774;SDS011;6451;42.630;23.382;2022-08-19T04:52:26;7.78;;;7.05;;
12774;SDS011;6451;42.630;23.382;2022-08-19T04:54:53;8.00;;;6.70;;
12774;SDS011;6451;42.630;23.382;2022-08-19T04:57:21;7.28;;;6.47;;
12774;SDS011;6451;42.630;23.382;2022-08-19T04:59:49;7.40;;;6.53;;
12774;SDS011;6451;42.630;23.382;2022-08-19T05:02:21;7.53;;;6.47;;
12774;SDS011;6451;42.630;23.382;2022-08-19T05:04:50;7.93;;;6.60;;
12774;SDS011;6451;42.630;23.382;2022-08-19T05:07:17;7.32;;;6.55;;
12774;SDS011;6451;42.630;23.382;2022-08-19T05:09:44;7.45;;;6.63;;
12774;SDS011;6451;42.630;23.382;2022-08-19T05:12:11;9.23;;;6.80;;
12774;SDS011;6451;42.630;23.382;2022-08-19T05:14:38;9.60;;;6.40;;
12774;SDS011;6451;42.630;23.382;2022-08-19T05:17:04;9.85;;;6.40;;
12774;SDS011;6451;42.630;23.382;2022-08-19T05:19:33;9.93;;;6.68;;
12774;SDS011;6451;42.630;23.382;2022-08-19T05:22:17;8.43;;;6.30;;
12774;SDS011;6451;42.630;23.382;2022-08-19T05:25:01;10.45;;;6.50;;
12774;SDS011;6451;42.630;23.382;2022-08-19T05:27:30;8.13;;;6.47;;
12774;SDS011;6451;42.630;23.382;2022-08-19T05:29:57;9.63;;;6.85;;
12774;SDS011;6451;42.630;23.382;2022-08-19T05:32:25;7.45;;;6.63;;
12774;SDS011;6451;42.630;23.382;2022-08-19T05:34:54;7.32;;;6.63;;
12774;SDS011;6451;42.630;23.382;2022-08-19T05:37:21;7.15;;;6.35;;
12774;SDS011;6451;42.630;23.382;2022-08-19T05:39:48;9.57;;;6.43;;
12774;SDS011;6451;42.630;23.382;2022-08-19T05:42:15;7.13;;;6.40;;
12774;SDS011;6451;42.630;23.382;2022-08-19T05:44:43;9.38;;;6.68;;
12774;SDS011;6451;42.630;23.382;2022-08-19T05:47:10;9.20;;;6.20;;
12774;SDS011;6451;42.630;23.382;2022-08-19T05:49:38;8.70;;;6.75;;
12774;SDS011;6451;42.630;23.382;2022-08-19T05:52:07;6.97;;;6.13;;
12774;SDS011;6451;42.630;23.382;2022-08-19T05:54:36;7.90;;;6.30;;
12774;SDS011;6451;42.630;23.382;2022-08-19T05:57:05;6.75;;;6.15;;
12774;SDS011;6451;42.630;23.382;2022-08-19T05:59:32;8.82;;;6.35;;
12774;SDS011;6451;42.630;23.382;2022-08-19T06:02:01;6.80;;;6.20;;
12774;SDS011;6451;42.630;23.382;2022-08-19T06:04:31;7.68;;;5.90;;
12774;SDS011;6451;42.630;23.382;2022-08-19T06:06:58;7.03;;;6.35;;
12774;SDS011;6451;42.630;23.382;2022-08-19T06:09:28;6.40;;;5.80;;
12774;SDS011;6451;42.630;23.382;2022-08-19T06:11:55;6.30;;;5.60;;
12774;SDS011;6451;42.630;23.382;2022-08-19T06:14:26;10.57;;;6.00;;
12774;SDS011;6451;42.630;23.382;2022-08-19T06:16:54;7.35;;;6.65;;
12774;SDS011;6451;42.630;23.382;2022-08-19T06:19:22;8.48;;;6.75;;
12774;SDS011;6451;42.630;23.382;2022-08-19T06:21:50;7.22;;;6.45;;
12774;SDS011;6451;42.630;23.382;2022-08-19T06:24:19;7.20;;;6.50;;
12774;SDS011;6451;42.630;23.382;2022-08-19T06:26:50;9.23;;;8.32;;
12774;SDS011;6451;42.630;23.382;2022-08-19T06:29:18;6.28;;;5.70;;
12774;SDS011;6451;42.630;23.382;2022-08-19T06:31:48;7.85;;;6.30;;
12774;SDS011;6451;42.630;23.382;2022-08-19T06:34:17;6.68;;;6.03;;
12774;SDS011;6451;42.630;23.382;2022-08-19T06:36:46;8.20;;;6.32;;
12774;SDS011;6451;42.630;23.382;2022-08-19T06:39:15;9.35;;;6.88;;
12774;SDS011;6451;42.630;23.382;2022-08-19T06:41:46;7.28;;;6.53;;
12774;SDS011;6451;42.630;23.382;2022-08-19T06:44:16;12.02;;;6.47;;
12774;SDS011;6451;42.630;23.382;2022-08-19T06:46:45;7.47;;;6.47;;
12774;SDS011;6451;42.630;23.382;2022-08-19T06:49:14;9.50;;;6.63;;
12774;SDS011;6451;42.630;23.382;2022-08-19T06:51:42;8.20;;;6.15;;
12774;SDS011;6451;42.630;23.382;2022-08-19T06:54:11;7.60;;;6.28;;
12774;SDS011;6451;42.630;23.382;2022-08-19T06:56:38;11.85;;;6.53;;
12774;SDS011;6451;42.630;23.382;2022-08-19T06:59:06;8.35;;;6.25;;
12774;SDS011;6451;42.630;23.382;2022-08-19T07:01:36;12.05;;;6.55;;
12774;SDS011;6451;42.630;23.382;2022-08-19T07:04:05;8.48;;;6.78;;
12774;SDS011;6451;42.630;23.382;2022-08-19T07:06:34;10.00;;;6.63;;
12774;SDS011;6451;42.630;23.382;2022-08-19T07:09:03;8.63;;;6.40;;
12774;SDS011;6451;42.630;23.382;2022-08-19T07:11:31;8.27;;;5.90;;
12774;SDS011;6451;42.630;23.382;2022-08-19T07:13:58;8.23;;;6.38;;
12774;SDS011;6451;42.630;23.382;2022-08-19T07:16:25;7.57;;;6.38;;
12774;SDS011;6451;42.630;23.382;2022-08-19T07:18:54;7.72;;;6.70;;
12774;SDS011;6451;42.630;23.382;2022-08-19T07:21:23;7.90;;;6.35;;
12774;SDS011;6451;42.630;23.382;2022-08-19T07:23:53;10.32;;;6.15;;
12774;SDS011;6451;42.630;23.382;2022-08-19T07:26:21;13.35;;;11.98;;
12774;SDS011;6451;42.630;23.382;2022-08-19T07:28:50;10.82;;;7.50;;
12774;SDS011;6451;42.630;23.382;2022-08-19T07:31:18;8.40;;;6.70;;
12774;SDS011;6451;42.630;23.382;2022-08-19T07:33:47;10.90;;;6.78;;
12774;SDS011;6451;42.630;23.382;2022-08-19T07:36:19;7.55;;;6.80;;
12774;SDS011;6451;42.630;23.382;2022-08-19T07:38:48;13.75;;;6.22;;
12774;SDS011;6451;42.630;23.382;2022-08-19T07:41:17;7.88;;;6.05;;
12774;SDS011;6451;42.630;23.382;2022-08-19T07:43:46;8.77;;;5.80;;
12774;SDS011;6451;42.630;23.382;2022-08-19T07:46:14;13.35;;;6.47;;
12774;SDS011;6451;42.630;23.382;2022-08-19T07:48:41;10.82;;;5.80;;
12774;SDS011;6451;42.630;23.382;2022-08-19T07:51:13;8.77;;;5.65;;
12774;SDS011;6451;42.630;23.382;2022-08-19T07:53:44;6.68;;;6.07;;
12774;SDS011;6451;42.630;23.382;2022-08-19T07:56:12;7.32;;;5.55;;
12774;SDS011;6451;42.630;23.382;2022-08-19T07:58:41;11.63;;;6.30;;
12774;SDS011;6451;42.630;23.382;2022-08-19T08:01:10;9.38;;;5.88;;
12774;SDS011;6451;42.630;23.382;2022-08-19T08:03:38;9.43;;;5.85;;
12774;SDS011;6451;42.630;23.382;2022-08-19T08:06:23;7.38;;;5.60;;
12774;SDS011;6451;42.630;23.382;2022-08-19T08:09:10;7.88;;;5.20;;
12774;SDS011;6451;42.630;23.382;2022-08-19T08:11:42;6.68;;;5.43;;
12774;SDS011;6451;42.630;23.382;2022-08-19T08:14:16;9.70;;;5.80;;
12774;SDS011;6451;42.630;23.382;2022-08-19T08:16:44;7.90;;;5.78;;
12774;SDS011;6451;42.630;23.382;2022-08-19T08:19:11;9.82;;;5.97;;
12774;SDS011;6451;42.630;23.382;2022-08-19T08:21:41;6.43;;;5.30;;
12774;SDS011;6451;42.630;23.382;2022-08-19T08:24:10;7.93;;;5.82;;
12774;SDS011;6451;42.630;23.382;2022-08-19T08:26:37;17.15;;;6.32;;
12774;SDS011;6451;42.630;23.382;2022-08-19T08:29:04;8.05;;;5.68;;
12774;SDS011;6451;42.630;23.382;2022-08-19T08:31:34;13.30;;;6.00;;
12774;SDS011;6451;42.630;23.382;2022-08-19T08:34:01;8.32;;;6.05;;
12774;SDS011;6451;42.630;23.382;2022-08-19T08:36:28;7.32;;;5.55;;
12774;SDS011;6451;42.630;23.382;2022-08-19T08:38:58;11.32;;;5.70;;
12774;SDS011;6451;42.630;23.382;2022-08-19T08:41:28;7.47;;;5.38;;
12774;SDS011;6451;42.630;23.382;2022-08-19T08:44:01;11.82;;;10.38;;
12774;SDS011;6451;42.630;23.382;2022-08-19T08:46:32;5.88;;;4.85;;
12774;SDS011;6451;42.630;23.382;2022-08-19T08:49:11;7.03;;;4.60;;
12774;SDS011;6451;42.630;23.382;2022-08-19T08:51:52;6.32;;;5.18;;
12774;SDS011;6451;42.630;23.382;2022-08-19T08:54:27;7.85;;;5.82;;
12774;SDS011;6451;42.630;23.382;2022-08-19T08:57:01;6.38;;;5.78;;
12774;SDS011;6451;42.630;23.382;2022-08-19T08:59:31;6.25;;;4.50;;
12774;SDS011;6451;42.630;23.382;2022-08-19T09:02:03;6.25;;;4.47;;
12774;SDS011;6451;42.630;23.382;2022-08-19T09:04:30;7.10;;;4.82;;
12774;SDS011;6451;42.630;23.382;2022-08-19T09:07:09;6.93;;;4.88;;
12774;SDS011;6451;42.630;23.382;2022-08-19T09:09:48;6.63;;;4.25;;
12774;SDS011;6451;42.630;23.382;2022-08-19T09:12:20;6.63;;;4.43;;
12774;SDS011;6451;42.630;23.382;2022-08-19T09:15:00;5.85;;;4.05;;
12774;SDS011;6451;42.630;23.382;2022-08-19T09:17:30;5.85;;;4.60;;
12774;SDS011;6451;42.630;23.382;2022-08-19T09:20:00;5.93;;;4.60;;
12774;SDS011;6451;42.630;23.382;2022-08-19T09:22:33;8.13;;;4.55;;
12774;SDS011;6451;42.630;23.382;2022-08-19T09:25:00;6.38;;;4.35;;
12774;SDS011;6451;42.630;23.382;2022-08-19T09:27:29;6.30;;;4.53;;
12774;SDS011;6451;42.630;23.382;2022-08-19T09:29:57;7.63;;;4.80;;
12774;SDS011;6451;42.630;23.382;2022-08-19T09:32:24;4.07;;;3.78;;
12774;SDS011;6451;42.630;23.382;2022-08-19T09:34:51;7.47;;;3.63;;
12774;SDS011;6451;42.630;23.382;2022-08-19T09:37:19;7.38;;;4.22;;
12774;SDS011;6451;42.630;23.382;2022-08-19T09:39:47;4.03;;;3.72;;
12774;SDS011;6451;42.630;23.382;2022-08-19T09:42:14;3.88;;;3.55;;
12774;SDS011;6451;42.630;23.382;2022-08-19T09:44:42;4.38;;;3.30;;
12774;SDS011;6451;42.630;23.382;2022-08-19T09:47:10;4.97;;;4.15;;
12774;SDS011;6451;42.630;23.382;2022-08-19T09:49:38;5.93;;;4.32;;
12774;SDS011;6451;42.630;23.382;2022-08-19T09:52:07;6.07;;;4.07;;
12774;SDS011;6451;42.630;23.382;2022-08-19T09:54:35;5.00;;;4.20;;
12774;SDS011;6451;42.630;23.382;2022-08-19T09:57:04;6.22;;;4.00;;
12774;SDS011;6451;42.630;23.382;2022-08-19T09:59:32;4.18;;;3.78;;
12774;SDS011;6451;42.630;23.382;2022-08-19T10:02:01;5.47;;;4.07;;
12774;SDS011;6451;42.630;23.382;2022-08-19T10:04:27;5.35;;;3.95;;
12774;SDS011;6451;42.630;23.382;2022-08-19T10:07:08;4.93;;;4.18;;
12774;SDS011;6451;42.630;23.382;2022-08-19T10:09:35;6.65;;;4.40;;
12774;SDS011;6451;42.630;23.382;2022-08-19T10:12:02;5.15;;;4.07;;
12774;SDS011;6451;42.630;23.382;2022-08-19T10:14:30;6.95;;;4.05;;
12774;SDS011;6451;42.630;23.382;2022-08-19T10:16:57;6.22;;;4.10;;
12774;SDS011;6451;42.630;23.382;2022-08-19T10:19:26;4.55;;;4.15;;
12774;SDS011;6451;42.630;23.382;2022-08-19T10:21:57;5.25;;;4.00;;
12774;SDS011;6451;42.630;23.382;2022-08-19T10:24:24;8.60;;;4.70;;
12774;SDS011;6451;42.630;23.382;2022-08-19T10:26:52;5.15;;;4.32;;
12774;SDS011;6451;42.630;23.382;2022-08-19T10:29:20;5.30;;;3.85;;
12774;SDS011;6451;42.630;23.382;2022-08-19T10:31:49;5.28;;;4.25;;
12774;SDS011;6451;42.630;23.382;2022-08-19T10:34:16;7.70;;;4.35;;
12774;SDS011;6451;42.630;23.382;2022-08-19T10:36:44;6.13;;;4.07;;
12774;SDS011;6451;42.630;23.382;2022-08-19T10:39:11;5.05;;;4.15;;
12774;SDS011;6451;42.630;23.382;2022-08-19T10:41:39;8.18;;;4.65;;
12774;SDS011;6451;42.630;23.382;2022-08-19T10:44:09;6.47;;;4.07;;
12774;SDS011;6451;42.630;23.382;2022-08-19T10:46:38;4.43;;;3.90;;
12774;SDS011;6451;42.630;23.382;2022-08-19T10:49:07;5.00;;;3.90;;
12774;SDS011;6451;42.630;23.382;2022-08-19T10:51:36;7.32;;;4.40;;
12774;SDS011;6451;42.630;23.382;2022-08-19T10:54:23;4.70;;;4.18;;
12774;SDS011;6451;42.630;23.382;2022-08-19T10:57:11;5.70;;;4.25;;
12774;SDS011;6451;42.630;23.382;2022-08-19T10:59:37;5.25;;;3.75;;
12774;SDS011;6451;42.630;23.382;2022-08-19T11:02:05;4.95;;;4.45;;
12774;SDS011;6451;42.630;23.382;2022-08-19T11:04:34;8.40;;;4.38;;
12774;SDS011;6451;42.630;23.382;2022-08-19T11:07:02;4.72;;;4.20;;
12774;SDS011;6451;42.630;23.382;2022-08-19T11:09:31;5.28;;;4.00;;
12774;SDS011;6451;42.630;23.382;2022-08-19T11:12:03;4.28;;;3.97;;
12774;SDS011;6451;42.630;23.382;2022-08-19T11:14:30;7.82;;;4.45;;
12774;SDS011;6451;42.630;23.382;2022-08-19T11:16:57;5.22;;;4.18;;
12774;SDS011;6451;42.630;23.382;2022-08-19T11:19:25;5.20;;;4.53;;
12774;SDS011;6451;42.630;23.382;2022-08-19T11:21:52;6.72;;;4.75;;
12774;SDS011;6451;42.630;23.382;2022-08-19T11:24:20;6.45;;;4.53;;
12774;SDS011;6451;42.630;23.382;2022-08-19T11:26:52;5.82;;;4.25;;
12774;SDS011;6451;42.630;23.382;2022-08-19T11:29:24;5.75;;;4.50;;
12774;SDS011;6451;42.630;23.382;2022-08-19T11:31:52;9.27;;;4.43;;
12774;SDS011;6451;42.630;23.382;2022-08-19T11:34:20;4.90;;;4.40;;
12774;SDS011;6451;42.630;23.382;2022-08-19T11:36:49;4.85;;;4.45;;
12774;SDS011;6451;42.630;23.382;2022-08-19T11:39:19;4.95;;;4.45;;
12774;SDS011;6451;42.630;23.382;2022-08-19T11:41:50;6.97;;;4.43;;
12774;SDS011;6451;42.630;23.382;2022-08-19T11:44:17;6.63;;;4.93;;
12774;SDS011;6451;42.630;23.382;2022-08-19T11:46:44;4.90;;;4.50;;
12774;SDS011;6451;42.630;23.382;2022-08-19T11:49:13;6.72;;;4.60;;
12774;SDS011;6451;42.630;23.382;2022-08-19T11:51:41;6.55;;;4.70;;
12774;SDS011;6451;42.630;23.382;2022-08-19T11:54:09;8.82;;;4.60;;
12774;SDS011;6451;42.630;23.382;2022-08-19T11:56:42;5.03;;;4.53;;
12774;SDS011;6451;42.630;23.382;2022-08-19T11:59:12;6.18;;;4.60;;
12774;SDS011;6451;42.630;23.382;2022-08-19T12:01:38;8.05;;;5.03;;
12774;SDS011;6451;42.630;23.382;2022-08-19T12:04:08;8.57;;;5.18;;
12774;SDS011;6451;42.630;23.382;2022-08-19T12:06:37;7.95;;;5.00;;
12774;SDS011;6451;42.630;23.382;2022-08-19T12:09:05;6.43;;;4.38;;
12774;SDS011;6451;42.630;23.382;2022-08-19T12:11:33;7.78;;;4.80;;
12774;SDS011;6451;42.630;23.382;2022-08-19T12:14:02;5.38;;;4.53;;
12774;SDS011;6451;42.630;23.382;2022-08-19T12:16:31;7.18;;;4.40;;
12774;SDS011;6451;42.630;23.382;2022-08-19T12:19:00;6.18;;;5.10;;
12774;SDS011;6451;42.630;23.382;2022-08-19T12:21:30;5.90;;;4.70;;
12774;SDS011;6451;42.630;23.382;2022-08-19T12:23:58;4.88;;;4.28;;
12774;SDS011;6451;42.630;23.382;2022-08-19T12:26:27;6.68;;;4.38;;
12774;SDS011;6451;42.630;23.382;2022-08-19T12:28:56;5.07;;;4.57;;
12774;SDS011;6451;42.630;23.382;2022-08-19T12:31:25;5.70;;;5.10;;
12774;SDS011;6451;42.630;23.382;2022-08-19T12:33:54;7.68;;;4.70;;
12774;SDS011;6451;42.630;23.382;2022-08-19T12:36:21;6.55;;;4.82;;
12774;SDS011;6451;42.630;23.382;2022-08-19T12:38:50;5.43;;;4.45;;
12774;SDS011;6451;42.630;23.382;2022-08-19T12:41:18;5.10;;;4.65;;
12774;SDS011;6451;42.630;23.382;2022-08-19T12:43:47;7.45;;;4.38;;
12774;SDS011;6451;42.630;23.382;2022-08-19T12:46:16;11.70;;;4.95;;
12774;SDS011;6451;42.630;23.382;2022-08-19T12:48:43;7.00;;;4.93;;
12774;SDS011;6451;42.630;23.382;2022-08-19T12:51:14;6.75;;;4.55;;
12774;SDS011;6451;42.630;23.382;2022-08-19T12:53:44;5.50;;;5.00;;
12774;SDS011;6451;42.630;23.382;2022-08-19T12:56:11;7.03;;;4.95;;
12774;SDS011;6451;42.630;23.382;2022-08-19T12:58:40;6.07;;;4.72;;
12774;SDS011;6451;42.630;23.382;2022-08-19T13:01:07;5.43;;;4.93;;
12774;SDS011;6451;42.630;23.382;2022-08-19T13:03:36;5.38;;;4.70;;
12774;SDS011;6451;42.630;23.382;2022-08-19T13:06:03;6.13;;;4.97;;
12774;SDS011;6451;42.630;23.382;2022-08-19T13:08:32;5.32;;;4.82;;
12774;SDS011;6451;42.630;23.382;2022-08-19T13:11:06;7.22;;;4.88;;
12774;SDS011;6451;42.630;23.382;2022-08-19T13:13:33;7.47;;;4.50;;
12774;SDS011;6451;42.630;23.382;2022-08-19T13:16:00;6.20;;;5.00;;
12774;SDS011;6451;42.630;23.382;2022-08-19T13:18:33;6.65;;;5.05;;
12774;SDS011;6451;42.630;23.382;2022-08-19T13:31:32;6.95;;;4.90;;
12774;SDS011;6451;42.630;23.382;2022-08-19T13:34:34;5.43;;;4.93;;
12774;SDS011;6451;42.630;23.382;2022-08-19T13:37:35;5.50;;;5.00;;
12774;SDS011;6451;42.630;23.382;2022-08-19T13:40:29;4.93;;;4.43;;
12774;SDS011;6451;42.630;23.382;2022-08-19T13:43:21;9.10;;;5.93;;
12774;SDS011;6451;42.630;23.382;2022-08-19T13:52:44;7.13;;;5.82;;
12774;SDS011;6451;42.630;23.382;2022-08-19T13:55:54;7.95;;;5.90;;
12774;SDS011;6451;42.630;23.382;2022-08-19T13:58:44;8.30;;;5.22;;
12774;SDS011;6451;42.630;23.382;2022-08-19T14:01:31;6.00;;;5.40;;
12774;SDS011;6451;42.630;23.382;2022-08-19T14:04:31;7.53;;;5.00;;
12774;SDS011;6451;42.630;23.382;2022-08-19T14:10:47;8.38;;;6.53;;
12774;SDS011;6451;42.630;23.382;2022-08-19T14:13:53;7.68;;;5.45;;
12774;SDS011;6451;42.630;23.382;2022-08-19T14:16:41;6.13;;;5.07;;
12774;SDS011;6451;42.630;23.382;2022-08-19T14:19:17;6.15;;;5.15;;
12774;SDS011;6451;42.630;23.382;2022-08-19T14:27:59;7.22;;;5.20;;
12774;SDS011;6451;42.630;23.382;2022-08-19T14:30:27;6.95;;;5.30;;
12774;SDS011;6451;42.630;23.382;2022-08-19T14:32:56;7.22;;;5.20;;
12774;SDS011;6451;42.630;23.382;2022-08-19T14:35:25;7.65;;;5.72;;
12774;SDS011;6451;42.630;23.382;2022-08-19T14:37:52;11.93;;;5.35;;
12774;SDS011;6451;42.630;23.382;2022-08-19T14:40:22;8.13;;;4.95;;
12774;SDS011;6451;42.630;23.382;2022-08-19T14:42:53;8.05;;;5.40;;
12774;SDS011;6451;42.630;23.382;2022-08-19T14:45:24;10.57;;;5.50;;
12774;SDS011;6451;42.630;23.382;2022-08-19T14:47:52;8.25;;;5.57;;
12774;SDS011;6451;42.630;23.382;2022-08-19T14:50:19;7.32;;;5.32;;
12774;SDS011;6451;42.630;23.382;2022-08-19T14:52:46;8.48;;;5.85;;
12774;SDS011;6451;42.630;23.382;2022-08-19T14:55:14;7.72;;;5.22;;
12774;SDS011;6451;42.630;23.382;2022-08-19T14:57:44;8.88;;;5.28;;
12774;SDS011;6451;42.630;23.382;2022-08-19T15:00:12;10.38;;;5.10;;
12774;SDS011;6451;42.630;23.382;2022-08-19T15:02:40;6.32;;;5.00;;
12774;SDS011;6451;42.630;23.382;2022-08-19T15:05:09;9.98;;;5.15;;
12774;SDS011;6451;42.630;23.382;2022-08-19T15:07:36;5.57;;;5.05;;
12774;SDS011;6451;42.630;23.382;2022-08-19T15:10:05;5.55;;;5.00;;
12774;SDS011;6451;42.630;23.382;2022-08-19T15:12:35;10.07;;;5.22;;
12774;SDS011;6451;42.630;23.382;2022-08-19T15:15:07;5.90;;;5.05;;
12774;SDS011;6451;42.630;23.382;2022-08-19T15:17:37;7.55;;;5.00;;
12774;SDS011;6451;42.630;23.382;2022-08-19T15:20:06;8.18;;;5.25;;
12774;SDS011;6451;42.630;23.382;2022-08-19T15:22:34;10.07;;;5.60;;
12774;SDS011;6451;42.630;23.382;2022-08-19T15:25:01;13.48;;;5.03;;
12774;SDS011;6451;42.630;23.382;2022-08-19T15:27:29;7.30;;;5.00;;
12774;SDS011;6451;42.630;23.382;2022-08-19T15:29:55;8.02;;;4.80;;